EDT,Max TemperatureF,Mean TemperatureF,Min TemperatureF,Max Dew PointF,MeanDew PointF,Min DewpointF,Max Humidity, Mean Humidity, Min Humidity, Max Sea Level PressureIn, Mean Sea Level PressureIn, Min Sea Level PressureIn, Max VisibilityMiles, Mean VisibilityMiles, Min VisibilityMiles, Max Wind SpeedMPH, Mean Wind SpeedMPH, Max Gust SpeedMPH,PrecipitationIn, CloudCover, Events, WindDirDegrees
2013-10-1,75,58,40,52,42,39,100,86,72,30.04,29.99,29.91,10,5,0,10,2,30,0.00,1,Fog,252
2013-10-2,73,59,45,60,49,43,93,75,57,30.02,29.95,29.91,10,5,0,16,4,21,0.00,2,Fog,238
2013-10-3,70,56,42,55,46,39,100,70,40,30.14,30.08,30.04,10,6,0,7,1,12,0.00,0,Fog-Rain,220
2013-10-4,61,56,51,57,54,49,96,88,80,30.10,30.07,30.05,10,7,1,7,1,10,0.67,7,Rain,15
2013-10-5,61,59,57,58,56,54,93,90,86,30.12,30.10,30.07,10,6,2,7,0,13,0.13,8,Rain,347
2013-10-6,61,59,57,56,54,50,93,83,72,30.13,30.09,30.04,10,7,2,14,5,20,0.60,8,Rain,92
2013-10-7,75,63,50,65,57,46,100,82,64,30.02,29.87,29.70,10,7,1,29,9,43,1.01,6,Rain,190
2013-10-8,62,50,37,44,40,36,92,66,39,30.39,30.22,29.97,10,10,10,13,3,17,0.00,1,,292
2013-10-9,66,49,32,43,35,31,96,63,29,30.47,30.41,30.36,10,10,10,12,2,16,0.00,0,,154
2013-10-10,60,48,35,47,40,33,92,69,46,30.35,30.27,30.19,10,10,9,7,1,8,0.00,0,,173
2013-10-11,74,58,41,49,42,34,93,58,23,30.17,30.14,30.09,10,10,10,7,1,10,0.00,0,,267
2013-10-12,70,54,38,50,45,36,92,69,45,30.36,30.28,30.17,10,10,10,18,5,24,0.00,3,,112
2013-10-13,68,58,47,47,44,37,86,64,42,30.42,30.37,30.32,10,10,10,14,5,18,0.00,2,,130
2013-10-14,67,54,41,54,47,40,93,75,56,30.37,30.31,30.25,10,10,7,7,1,10,0.00,6,,174
2013-10-15,66,61,55,54,53,49,93,76,58,30.26,30.21,30.12,10,9,5,16,2,22,T,6,Rain,57
2013-10-16,65,59,52,52,49,46,77,69,60,30.11,29.99,29.86,10,10,10,16,6,23,0.00,2,,160
2013-10-17,67,59,51,55,50,44,80,63,45,29.89,29.82,29.61,10,9,2,18,4,24,0.09,6,Rain,274
2013-10-18,64,51,38,58,44,33,93,65,36,29.95,29.77,29.57,10,10,5,21,8,30,0.12,5,Rain,259
2013-10-19,65,50,35,44,38,33,92,64,36,29.96,29.87,29.69,10,10,6,20,6,26,0.01,3,Rain,182
2013-10-20,55,54,42,45,43,37,82,74,66,30.02,29.87,29.68,10,10,8,18,7,35,0.05,5,,271
2013-10-21,66,51,36,40,36,34,92,63,34,30.10,30.02,29.93,10,10,10,14,3,18,0.00,2,,168
2013-10-22,55,44,32,49,40,31,92,76,59,29.91,29.81,29.76,10,10,4,15,4,21,0.10,4,Rain,229
2013-10-23,50,39,28,35,30,27,92,67,42,29.82,29.72,29.63,10,10,7,10,2,15,0.00,4,,248
2013-10-24,47,41,34,34,30,25,85,64,42,29.91,29.80,29.69,10,10,10,16,7,26,0.01,6,Rain,256
2013-10-25,46,41,35,34,29,24,85,65,45,30.16,30.06,29.93,10,10,9,16,6,21,T,6,,268
2013-10-26,49,43,36,34,28,23,79,58,36,30.15,30.01,29.83,10,10,10,20,7,26,0.00,5,,208
2013-10-27,49,40,30,32,30,27,82,64,45,30.08,29.91,29.80,10,10,10,18,7,28,0.00,6,,246
2013-10-28,53,39,25,35,27,22,92,64,35,30.36,30.18,30.07,10,10,10,20,4,33,0.00,3,,306
2013-10-29,44,32,19,23,19,17,84,60,36,30.47,30.41,30.35,10,10,10,10,1,14,0.00,0,,278
2013-10-30,50,40,29,36,31,21,89,73,56,30.34,30.27,30.21,10,10,7,7,1,9,0.02,5,Rain,203
2013-10-31,63,47,30,56,45,28,92,85,77,30.24,29.99,29.68,10,5,2,25,8,36,0.73,5,Rain,190